Time;durP1;ratioP1;P1;durP2;ratioP2;P2;SDS_P1;SDS_P2;PMS_P1;PMS_P2;Temp;Humidity;BMP_temperature;BMP_pressure;BME280_temperature;BME280_humidity;BME280_pressure;Samples;Min_cycle;Max_cycle;Signal;HPM_P1;HPM_P2
2022/09/06 00:01:11;;;;;;;1.50;0.93;;;20.70;1.00;;;;;;5116324;28;20524;-70
2022/09/06 00:03:39;;;;;;;1.10;0.80;;;20.60;1.00;;;;;;5114420;28;20452;-70
2022/09/06 00:06:09;;;;;;;1.00;0.70;;;20.60;1.00;;;;;;5116151;28;20517;-71
2022/09/06 00:08:36;;;;;;;0.90;0.60;;;20.60;1.00;;;;;;5114899;28;20520;-71
2022/09/06 00:11:03;;;;;;;2.00;0.80;;;20.60;1.00;;;;;;5116420;28;20583;-69
2022/09/06 00:13:30;;;;;;;1.40;0.90;;;20.60;1.00;;;;;;5115597;28;20452;-71
2022/09/06 00:16:04;;;;;;;1.00;0.70;;;20.60;1.00;;;;;;5116231;28;20444;-71
2022/09/06 00:18:31;;;;;;;1.10;0.80;;;20.50;1.00;;;;;;5113920;28;20477;-70
2022/09/06 00:20:58;;;;;;;1.10;0.80;;;20.50;10.30;;;;;;5115818;28;20589;-71
2022/09/06 00:23:25;;;;;;;1.40;0.73;;;20.60;3.20;;;;;;5115678;28;20812;-71
2022/09/06 00:25:52;;;;;;;0.97;0.80;;;20.60;1.00;;;;;;5116064;28;20445;-71
2022/09/06 00:28:19;;;;;;;4.43;0.90;;;20.60;99.90;;;;;;5114441;28;20513;-71
2022/09/06 00:30:46;;;;;;;0.80;0.70;;;20.60;99.90;;;;;;5116123;28;20524;-71
2022/09/06 00:33:15;;;;;;;0.77;0.70;;;20.60;99.90;;;;;;5113724;28;20453;-71
2022/09/06 00:35:46;;;;;;;1.10;0.70;;;20.60;99.90;;;;;;5113907;28;20488;-70
2022/09/06 00:38:13;;;;;;;1.07;0.80;;;20.60;99.90;;;;;;5114559;28;20814;-71
2022/09/06 00:40:40;;;;;;;0.77;0.70;;;20.70;70.80;;;;;;5115493;28;20589;-70
2022/09/06 00:43:08;;;;;;;1.00;0.60;;;20.70;1.00;;;;;;5114976;28;20749;-70
2022/09/06 00:45:35;;;;;;;1.13;0.70;;;20.70;1.00;;;;;;5115688;28;20809;-70
2022/09/06 00:48:04;;;;;;;1.00;0.73;;;20.80;1.00;;;;;;5114743;28;20507;-70
2022/09/06 00:50:33;;;;;;;0.90;0.70;;;20.80;1.00;;;;;;5115680;28;20506;-70
2022/09/06 00:53:00;;;;;;;1.00;0.80;;;20.80;76.90;;;;;;5113986;28;20514;-70
2022/09/06 00:55:27;;;;;;;3.77;0.97;;;20.80;99.90;;;;;;5115502;28;20807;-70
2022/09/06 00:57:55;;;;;;;1.20;0.80;;;20.80;1.00;;;;;;5113974;28;20468;-70
2022/09/06 01:00:22;;;;;;;1.50;0.70;;;20.80;1.00;;;;;;5115709;28;20945;-70
2022/09/06 01:02:49;;;;;;;1.20;0.80;;;20.70;1.00;;;;;;5114260;28;20497;-70
2022/09/06 01:05:17;;;;;;;1.10;0.73;;;20.60;1.00;;;;;;5115471;28;20556;-71
2022/09/06 01:07:56;;;;;;;1.17;0.73;;;20.60;1.00;;;;;;5118068;28;20479;-71
2022/09/06 01:10:45;;;;;;;1.20;0.77;;;20.60;99.90;;;;;;5119546;28;20448;-70
2022/09/06 01:13:25;;;;;;;0.80;0.70;;;20.50;1.00;;;;;;5118689;28;20482;-70
2022/09/06 01:15:59;;;;;;;1.10;0.77;;;20.40;99.90;;;;;;5119813;28;20445;-70
2022/09/06 01:18:38;;;;;;;1.33;0.70;;;20.40;99.90;;;;;;5119102;28;20505;-70
2022/09/06 01:21:15;;;;;;;1.47;0.70;;;20.30;99.90;;;;;;5119909;28;20484;-71
2022/09/06 01:24:21;;;;;;;1.50;0.70;;;20.30;99.90;;;;;;5118767;28;20456;-71
2022/09/06 01:27:31;;;;;;;2.43;0.73;;;20.20;99.90;;;;;;5105480;28;20499;-71
2022/09/06 01:30:04;;;;;;;0.87;0.80;;;20.20;99.90;;;;;;5119200;28;20487;-71
2022/09/06 01:32:39;;;;;;;4.30;1.00;;;20.20;99.90;;;;;;5119189;28;20891;-71
2022/09/06 01:35:15;;;;;;;1.10;0.83;;;20.10;99.90;;;;;;5117949;28;20448;-71
2022/09/06 01:37:42;;;;;;;0.90;0.80;;;20.00;99.90;;;;;;5118905;28;20533;-71
2022/09/06 01:40:09;;;;;;;2.17;0.90;;;20.10;99.90;;;;;;5117549;28;20484;-71
2022/09/06 01:42:40;;;;;;;1.83;0.83;;;20.10;99.90;;;;;;5118495;28;20507;-71
2022/09/06 01:45:10;;;;;;;1.00;0.80;;;20.10;97.10;;;;;;5117595;28;20537;-72
2022/09/06 01:47:46;;;;;;;1.10;0.80;;;20.20;1.00;;;;;;5118635;28;20534;-71
2022/09/06 01:50:51;;;;;;;1.07;0.73;;;20.10;99.90;;;;;;5118000;28;20508;-71
2022/09/06 01:53:33;;;;;;;1.13;0.67;;;20.10;99.90;;;;;;5111645;28;20456;-71
2022/09/06 01:56:07;;;;;;;1.00;0.90;;;20.10;99.90;;;;;;5119203;28;20483;-70
2022/09/06 01:58:57;;;;;;;1.10;0.80;;;20.10;1.00;;;;;;5117112;28;20509;-70
2022/09/06 02:01:30;;;;;;;0.90;0.80;;;20.10;1.00;;;;;;5118134;28;20946;-72
2022/09/06 02:04:02;;;;;;;1.00;0.80;;;20.10;1.00;;;;;;5116737;28;20456;-72
2022/09/06 02:06:33;;;;;;;0.93;0.67;;;20.00;1.00;;;;;;5118301;28;20732;-71
2022/09/06 02:09:05;;;;;;;1.13;0.83;;;20.00;56.30;;;;;;5116778;28;21078;-70
2022/09/06 02:11:37;;;;;;;1.47;0.70;;;20.10;17.70;;;;;;5118854;28;20687;-71
2022/09/06 02:14:11;;;;;;;1.23;0.70;;;20.20;1.00;;;;;;5117077;28;20464;-71
2022/09/06 02:16:42;;;;;;;1.50;0.80;;;20.30;1.00;;;;;;5118445;28;20480;-70
2022/09/06 02:19:16;;;;;;;1.27;1.00;;;20.40;1.00;;;;;;5118328;28;20464;-71
2022/09/06 02:21:46;;;;;;;1.20;0.80;;;20.50;1.00;;;;;;5117443;28;20544;-71
2022/09/06 02:24:18;;;;;;;0.90;0.77;;;20.60;38.90;;;;;;5117738;28;20802;-71
2022/09/06 02:26:47;;;;;;;1.20;0.77;;;20.70;1.00;;;;;;5116919;28;20494;-72
2022/09/06 02:29:16;;;;;;;1.93;0.83;;;20.80;1.00;;;;;;5117694;28;20491;-71
2022/09/06 02:31:47;;;;;;;1.40;0.70;;;20.80;99.90;;;;;;5116821;28;20529;-71
2022/09/06 02:34:17;;;;;;;0.93;0.67;;;21.00;99.90;;;;;;5117916;28;20803;-71
2022/09/06 02:36:44;;;;;;;1.03;0.90;;;21.00;99.90;;;;;;5117999;28;20536;-71
2022/09/06 02:39:12;;;;;;;1.43;0.73;;;21.10;2.60;;;;;;5116772;28;20487;-70
2022/09/06 02:41:42;;;;;;;1.47;0.80;;;21.20;1.00;;;;;;5118198;28;20868;-70
2022/09/06 02:44:09;;;;;;;1.50;0.73;;;21.30;1.00;;;;;;5117091;28;20817;-71
2022/09/06 02:46:37;;;;;;;1.00;0.80;;;21.50;1.00;;;;;;5117745;28;20449;-71
2022/09/06 02:49:04;;;;;;;1.00;0.80;;;21.50;1.00;;;;;;5116967;28;21166;-71
2022/09/06 02:51:35;;;;;;;1.10;0.80;;;21.40;1.00;;;;;;5118021;28;20469;-70
2022/09/06 02:54:02;;;;;;;1.00;0.80;;;21.30;1.00;;;;;;5116047;28;20517;-71
2022/09/06 02:56:29;;;;;;;1.80;0.80;;;21.30;99.90;;;;;;5117474;28;20445;-71
2022/09/06 02:58:56;;;;;;;1.60;1.00;;;21.10;1.00;;;;;;5116515;28;20453;-69
2022/09/06 03:01:23;;;;;;;1.73;0.97;;;20.90;1.00;;;;;;5117294;28;20991;-71
2022/09/06 03:03:51;;;;;;;1.10;0.83;;;20.60;52.80;;;;;;5116219;28;20460;-70
2022/09/06 03:06:18;;;;;;;3.03;1.00;;;20.40;72.80;;;;;;5115919;28;20933;-70
2022/09/06 03:08:45;;;;;;;3.20;1.00;;;20.20;99.90;;;;;;5113554;28;20585;-71
2022/09/06 03:11:12;;;;;;;2.20;1.00;;;20.00;99.90;;;;;;5117033;28;20521;-71
2022/09/06 03:13:40;;;;;;;1.90;0.93;;;19.70;99.90;;;;;;5115872;28;20464;-71
2022/09/06 03:16:07;;;;;;;1.90;1.00;;;19.60;99.90;;;;;;5115998;28;20491;-71
2022/09/06 03:18:34;;;;;;;2.00;1.00;;;19.60;99.90;;;;;;5114600;28;20459;-70
2022/09/06 03:21:03;;;;;;;2.10;1.00;;;19.50;99.90;;;;;;5115539;28;20505;-71
2022/09/06 03:23:30;;;;;;;2.33;1.10;;;19.60;99.90;;;;;;5115547;28;20472;-71
2022/09/06 03:25:57;;;;;;;1.70;1.00;;;19.70;99.90;;;;;;5114886;28;20483;-70
2022/09/06 03:28:24;;;;;;;1.40;0.93;;;19.70;99.90;;;;;;5113496;28;20619;-71
2022/09/06 03:30:52;;;;;;;3.40;1.10;;;19.70;99.90;;;;;;5114949;28;20441;-71
2022/09/06 03:33:19;;;;;;;1.33;1.10;;;19.50;99.90;;;;;;5115228;28;20444;-71
2022/09/06 03:35:50;;;;;;;1.90;1.13;;;19.40;99.90;;;;;;5116195;28;20436;-71
2022/09/06 03:38:20;;;;;;;1.67;1.30;;;19.50;99.90;;;;;;5115867;28;20509;-71
2022/09/06 03:40:48;;;;;;;3.20;0.90;;;19.60;99.90;;;;;;5116213;28;20445;-71
2022/09/06 03:43:16;;;;;;;1.40;1.00;;;19.40;99.90;;;;;;5114721;28;20520;-71
2022/09/06 03:45:46;;;;;;;1.30;1.10;;;19.40;99.90;;;;;;5116318;28;20969;-72
2022/09/06 03:48:13;;;;;;;2.00;1.00;;;19.30;99.90;;;;;;5116363;28;20456;-71
2022/09/06 03:50:45;;;;;;;1.50;1.10;;;19.10;99.90;;;;;;5116342;28;20607;-71
2022/09/06 03:53:11;;;;;;;1.40;1.03;;;19.00;99.90;;;;;;5115738;28;20462;-71
2022/09/06 03:55:40;;;;;;;2.20;0.93;;;19.00;99.90;;;;;;5116246;28;20445;-71
2022/09/06 03:58:07;;;;;;;1.30;1.10;;;19.00;99.90;;;;;;5114779;28;20456;-72
2022/09/06 04:00:34;;;;;;;1.50;1.10;;;19.00;99.90;;;;;;5116050;28;20521;-71
2022/09/06 04:03:01;;;;;;;1.30;1.10;;;19.00;99.90;;;;;;5115062;28;20677;-72
2022/09/06 04:05:28;;;;;;;2.77;1.00;;;18.90;99.90;;;;;;5116117;28;20513;-72
2022/09/06 04:07:55;;;;;;;1.50;1.00;;;18.80;99.90;;;;;;5114180;28;20477;-71
2022/09/06 04:10:22;;;;;;;1.17;0.90;;;18.80;99.90;;;;;;5115216;28;20472;-72
2022/09/06 04:12:50;;;;;;;1.00;0.90;;;18.80;99.90;;;;;;5113935;28;20445;-72
2022/09/06 04:15:17;;;;;;;1.30;1.00;;;18.90;99.90;;;;;;5113716;28;20830;-72
2022/09/06 04:17:45;;;;;;;1.43;1.13;;;19.00;99.90;;;;;;5112777;28;20911;-71
2022/09/06 04:20:12;;;;;;;2.13;1.10;;;19.10;99.90;;;;;;5113786;28;20457;-71
2022/09/06 04:22:39;;;;;;;1.30;1.00;;;19.10;99.90;;;;;;5111130;28;20865;-71
2022/09/06 04:25:07;;;;;;;1.80;1.20;;;19.10;99.90;;;;;;5112633;28;20809;-70
2022/09/06 04:27:34;;;;;;;1.20;1.10;;;19.00;99.90;;;;;;5111626;28;20888;-71
2022/09/06 04:30:03;;;;;;;1.30;1.10;;;18.90;99.90;;;;;;5112826;28;20478;-71
2022/09/06 04:32:31;;;;;;;1.27;1.00;;;18.80;99.90;;;;;;5111808;28;20441;-71
2022/09/06 04:35:00;;;;;;;1.47;1.10;;;18.70;99.90;;;;;;5112214;28;20448;-72
2022/09/06 04:37:27;;;;;;;2.53;1.10;;;18.70;99.90;;;;;;5113047;28;20452;-71
2022/09/06 04:39:54;;;;;;;1.87;1.20;;;18.70;99.90;;;;;;5115317;28;20444;-72
2022/09/06 04:42:21;;;;;;;3.70;1.20;;;18.70;99.90;;;;;;5117518;28;20876;-72
2022/09/06 04:44:48;;;;;;;2.27;1.00;;;18.70;99.90;;;;;;5119153;28;20864;-72
2022/09/06 04:47:18;;;;;;;1.60;1.03;;;18.70;99.90;;;;;;5119036;28;20544;-72
2022/09/06 04:49:47;;;;;;;2.20;1.07;;;18.80;99.90;;;;;;5118204;28;20906;-72
2022/09/06 04:52:13;;;;;;;2.47;1.10;;;18.80;99.90;;;;;;5119517;28;20447;-72
2022/09/06 04:54:40;;;;;;;2.00;1.10;;;18.80;99.90;;;;;;5118246;28;20456;-71
2022/09/06 04:57:08;;;;;;;1.73;1.63;;;18.80;99.90;;;;;;5119603;28;20464;-72
2022/09/06 04:59:35;;;;;;;1.50;1.10;;;18.80;99.90;;;;;;5117115;28;20512;-72
2022/09/06 05:02:02;;;;;;;1.33;1.07;;;18.80;99.90;;;;;;5117981;28;20488;-71
2022/09/06 05:04:30;;;;;;;2.00;1.10;;;18.70;99.90;;;;;;5118724;28;20552;-72
2022/09/06 05:07:01;;;;;;;2.87;1.13;;;18.70;99.90;;;;;;5119439;28;20449;-72
2022/09/06 05:09:31;;;;;;;1.57;1.30;;;18.90;99.90;;;;;;5095245;28;20477;-72
2022/09/06 05:11:59;;;;;;;1.70;1.30;;;19.00;99.90;;;;;;5106361;28;20445;-72
2022/09/06 05:14:25;;;;;;;1.70;1.13;;;18.90;99.90;;;;;;5114953;28;20504;-72
2022/09/06 05:16:53;;;;;;;2.30;1.10;;;18.90;99.90;;;;;;5112297;28;21042;-72
2022/09/06 05:19:20;;;;;;;1.77;1.00;;;19.00;99.90;;;;;;5105488;28;20481;-72
2022/09/06 05:21:50;;;;;;;1.30;1.00;;;19.00;99.90;;;;;;5096708;28;20885;-72
2022/09/06 05:24:17;;;;;;;1.50;1.10;;;19.00;99.90;;;;;;5116323;28;20453;-72
2022/09/06 05:26:44;;;;;;;2.50;1.03;;;19.10;99.90;;;;;;5117030;28;20456;-72
2022/09/06 05:29:11;;;;;;;1.10;1.00;;;19.10;99.90;;;;;;5117091;28;20497;-72
2022/09/06 05:31:38;;;;;;;1.97;1.00;;;19.20;99.90;;;;;;5115749;28;20452;-72
2022/09/06 05:34:05;;;;;;;1.60;0.97;;;19.40;99.90;;;;;;5116640;28;20469;-73
2022/09/06 05:36:32;;;;;;;1.83;1.30;;;19.50;99.90;;;;;;5114154;28;21161;-73
2022/09/06 05:39:00;;;;;;;1.83;1.00;;;19.60;99.90;;;;;;5106931;28;20456;-72
2022/09/06 05:41:27;;;;;;;2.10;1.10;;;19.50;99.90;;;;;;5111841;28;20461;-72
2022/09/06 05:43:54;;;;;;;2.00;0.90;;;19.50;99.90;;;;;;5108234;28;20772;-71
2022/09/06 05:46:21;;;;;;;2.93;1.70;;;19.50;99.90;;;;;;5094095;28;20954;-72
2022/09/06 05:48:53;;;;;;;2.20;1.20;;;19.70;99.90;;;;;;5110700;28;20501;-72
2022/09/06 05:51:20;;;;;;;2.83;1.20;;;19.70;99.90;;;;;;5094557;28;20445;-71
2022/09/06 05:53:47;;;;;;;2.20;1.33;;;19.50;99.90;;;;;;5096878;28;22541;-71
2022/09/06 05:56:17;;;;;;;1.97;1.03;;;19.40;99.90;;;;;;5103161;28;20513;-71
2022/09/06 05:58:45;;;;;;;1.87;1.10;;;19.20;99.90;;;;;;5108827;28;20452;-72
2022/09/06 06:01:16;;;;;;;1.10;0.90;;;19.20;99.90;;;;;;5096964;28;20453;-70
2022/09/06 06:03:50;;;;;;;2.17;1.07;;;19.20;99.90;;;;;;5097109;28;20975;-71
2022/09/06 06:06:17;;;;;;;2.33;1.23;;;19.10;99.90;;;;;;5097358;28;20506;-71
2022/09/06 06:08:45;;;;;;;2.00;1.40;;;19.10;99.90;;;;;;5109157;28;20473;-71
2022/09/06 06:11:12;;;;;;;1.30;1.00;;;19.20;99.90;;;;;;5099850;28;20442;-71
2022/09/06 06:13:42;;;;;;;3.40;1.10;;;19.30;99.90;;;;;;5099430;28;20477;-71
2022/09/06 06:16:10;;;;;;;1.40;1.00;;;19.40;99.90;;;;;;5105430;28;20453;-71
2022/09/06 06:18:37;;;;;;;1.97;1.17;;;19.30;99.90;;;;;;5096233;28;20966;-71
2022/09/06 06:21:12;;;;;;;1.53;1.00;;;19.30;99.90;;;;;;5111982;28;20467;-71
2022/09/06 06:23:39;;;;;;;1.40;0.90;;;19.30;99.90;;;;;;5117415;28;20484;-71
2022/09/06 06:26:07;;;;;;;1.70;1.10;;;19.30;99.90;;;;;;5115160;28;20474;-72
2022/09/06 06:28:35;;;;;;;4.60;1.40;;;19.30;99.90;;;;;;5114775;28;20559;-70
2022/09/06 06:31:04;;;;;;;1.63;1.00;;;19.50;99.90;;;;;;5107700;27;20446;-72
2022/09/06 06:33:31;;;;;;;1.10;0.90;;;19.60;99.90;;;;;;5137500;27;20479;-72
2022/09/06 06:35:59;;;;;;;1.40;1.00;;;19.60;99.90;;;;;;5135451;27;20460;-72
2022/09/06 06:38:31;;;;;;;1.50;1.07;;;19.60;93.50;;;;;;5134756;27;20790;-72
2022/09/06 06:40:58;;;;;;;1.38;1.10;;;19.60;85.50;;;;;;5096146;28;20456;-72
2022/09/06 06:43:25;;;;;;;2.43;0.90;;;19.50;68.80;;;;;;5094053;28;20572;-72
2022/09/06 06:45:52;;;;;;;1.40;0.90;;;19.60;89.20;;;;;;5094727;28;20499;-72
2022/09/06 06:48:21;;;;;;;1.10;0.80;;;19.70;93.20;;;;;;5099653;28;20526;-72
2022/09/06 06:50:48;;;;;;;1.20;1.00;;;19.90;71.50;;;;;;5106007;28;20766;-73
2022/09/06 06:53:15;;;;;;;2.27;1.00;;;20.00;33.10;;;;;;5099779;28;20440;-72
2022/09/06 06:55:47;;;;;;;1.73;1.27;;;20.10;17.00;;;;;;5114816;28;20868;-71
2022/09/06 06:58:15;;;;;;;1.30;1.07;;;20.00;25.60;;;;;;5116692;28;20475;-72
2022/09/06 07:00:42;;;;;;;1.40;1.00;;;20.10;37.80;;;;;;5110445;28;20493;-71
2022/09/06 07:03:09;;;;;;;2.40;1.20;;;20.10;30.20;;;;;;5107100;27;20477;-71
2022/09/06 07:05:39;;;;;;;1.60;1.13;;;20.20;36.40;;;;;;5130403;27;20508;-72
2022/09/06 07:08:06;;;;;;;1.43;1.00;;;20.30;21.50;;;;;;5110461;28;20484;-71
2022/09/06 07:10:34;;;;;;;1.20;1.00;;;20.30;25.50;;;;;;5113431;28;20449;-71
2022/09/06 07:13:01;;;;;;;1.23;1.00;;;20.50;16.10;;;;;;5115340;28;20440;-71
2022/09/06 07:15:28;;;;;;;2.90;1.00;;;20.60;1.00;;;;;;5111716;28;20490;-70
2022/09/06 07:17:55;;;;;;;1.27;0.90;;;20.70;1.00;;;;;;5112730;28;20801;-71
2022/09/06 07:20:24;;;;;;;2.07;0.83;;;20.60;1.00;;;;;;5114310;28;20448;-71
2022/09/06 07:23:00;;;;;;;3.30;1.27;;;20.60;1.00;;;;;;5095549;28;20481;-71
2022/09/06 07:25:27;;;;;;;2.80;1.07;;;20.60;1.00;;;;;;5093191;28;20449;-72
2022/09/06 07:28:00;;;;;;;1.50;0.93;;;20.70;1.00;;;;;;5105094;28;20452;-71
2022/09/06 07:30:27;;;;;;;1.60;1.07;;;20.70;1.00;;;;;;5093266;28;20512;-71
2022/09/06 07:32:54;;;;;;;1.23;0.93;;;20.60;1.00;;;;;;5107280;27;20467;-70
2022/09/06 07:35:21;;;;;;;2.97;0.77;;;20.70;1.00;;;;;;5121605;27;20525;-70
2022/09/06 07:37:55;;;;;;;0.93;0.80;;;20.70;1.00;;;;;;5120131;27;20440;-70
2022/09/06 07:40:24;;;;;;;1.20;0.80;;;20.60;1.00;;;;;;5114236;28;20452;-70
2022/09/06 07:42:51;;;;;;;2.23;1.00;;;20.70;1.00;;;;;;5112619;28;21124;-71
2022/09/06 07:45:20;;;;;;;1.10;0.90;;;20.80;1.00;;;;;;5112309;28;20453;-70
2022/09/06 07:47:54;;;;;;;2.20;0.90;;;20.80;1.00;;;;;;5102108;28;20457;-69
2022/09/06 07:50:21;;;;;;;0.90;0.80;;;20.80;1.00;;;;;;5099177;28;20548;-70
2022/09/06 07:52:48;;;;;;;1.93;1.00;;;20.90;1.00;;;;;;5100201;28;20452;-71
2022/09/06 07:55:15;;;;;;;1.00;0.80;;;21.00;1.00;;;;;;5104527;28;20473;-71
2022/09/06 07:57:43;;;;;;;2.10;0.83;;;21.10;1.00;;;;;;5112513;28;20480;-71
2022/09/06 08:00:11;;;;;;;1.40;0.90;;;21.20;1.00;;;;;;5112422;28;20449;-70
2022/09/06 08:02:39;;;;;;;1.10;0.90;;;21.30;1.00;;;;;;5108922;28;20448;-70
2022/09/06 08:05:07;;;;;;;1.47;0.80;;;21.40;1.00;;;;;;5113772;28;20776;-71
2022/09/06 08:07:34;;;;;;;1.20;0.90;;;21.50;1.00;;;;;;5113914;28;20545;-71
2022/09/06 08:10:01;;;;;;;1.63;0.80;;;21.70;1.00;;;;;;5097827;28;20453;-69
2022/09/06 08:12:28;;;;;;;1.20;0.80;;;21.80;99.90;;;;;;5098791;28;20461;-69
2022/09/06 08:14:56;;;;;;;1.10;0.90;;;21.90;99.90;;;;;;5098949;28;20446;-70
2022/09/06 08:17:23;;;;;;;1.00;0.77;;;22.00;99.90;;;;;;5110487;28;20884;-70
2022/09/06 08:19:50;;;;;;;1.83;0.80;;;22.10;99.90;;;;;;5113390;28;20496;-71
2022/09/06 08:22:17;;;;;;;1.50;0.80;;;22.20;50.50;;;;;;5109225;28;20808;-70
2022/09/06 08:24:44;;;;;;;1.00;0.80;;;22.30;1.00;;;;;;5115328;28;20529;-69
2022/09/06 08:27:11;;;;;;;1.43;0.90;;;22.40;1.00;;;;;;5113862;28;20488;-71
2022/09/06 08:29:38;;;;;;;1.00;0.77;;;22.50;1.00;;;;;;5096791;28;20492;-70
2022/09/06 08:32:07;;;;;;;0.90;0.73;;;22.70;99.90;;;;;;5112946;28;20444;-69
2022/09/06 08:34:34;;;;;;;1.27;0.70;;;22.80;1.00;;;;;;5113878;28;20466;-70
2022/09/06 08:37:01;;;;;;;1.57;0.80;;;22.90;99.90;;;;;;5113034;28;20457;-71
2022/09/06 08:39:28;;;;;;;1.10;0.80;;;23.00;1.00;;;;;;5112965;28;20476;-69
2022/09/06 08:42:00;;;;;;;1.00;0.73;;;23.00;1.00;;;;;;5110746;28;20456;-71
2022/09/06 08:44:31;;;;;;;1.20;0.83;;;23.20;99.90;;;;;;5110800;28;21210;-70
2022/09/06 08:47:01;;;;;;;1.00;0.80;;;23.20;12.30;;;;;;5090902;28;20481;-70
2022/09/06 08:49:32;;;;;;;1.30;0.90;;;23.30;17.90;;;;;;5089958;28;20449;-71
2022/09/06 08:52:27;;;;;;;1.20;0.80;;;23.30;1.00;;;;;;5089192;28;21056;-71
2022/09/06 08:55:02;;;;;;;2.60;0.70;;;23.40;99.90;;;;;;5085410;28;20724;-71
2022/09/06 08:57:41;;;;;;;1.30;0.90;;;23.50;99.90;;;;;;5091399;28;20895;-71
2022/09/06 09:00:11;;;;;;;3.00;0.90;;;23.60;99.90;;;;;;5098402;28;20476;-70
2022/09/06 09:02:44;;;;;;;1.57;0.80;;;23.70;99.90;;;;;;5111243;28;20457;-72
2022/09/06 09:05:20;;;;;;;1.57;0.80;;;23.80;99.90;;;;;;5112872;28;20516;-71
2022/09/06 09:07:53;;;;;;;1.10;0.80;;;24.00;1.00;;;;;;5094822;28;20491;-70
2022/09/06 09:10:27;;;;;;;1.83;0.97;;;24.20;99.90;;;;;;5108743;28;21113;-71
2022/09/06 09:12:54;;;;;;;1.53;0.87;;;24.40;1.00;;;;;;5093894;28;20453;-72
2022/09/06 09:15:22;;;;;;;1.10;0.83;;;24.50;1.00;;;;;;5097215;28;20468;-72
2022/09/06 09:17:51;;;;;;;1.93;0.87;;;24.70;1.00;;;;;;5112564;28;20484;-71
2022/09/06 09:20:20;;;;;;;1.97;0.70;;;24.80;1.00;;;;;;5106509;28;20453;-70
2022/09/06 09:22:48;;;;;;;0.90;0.80;;;25.00;1.00;;;;;;5101241;28;20497;-72
2022/09/06 09:25:20;;;;;;;1.30;0.90;;;25.30;1.00;;;;;;5112927;28;20487;-72
2022/09/06 09:27:49;;;;;;;1.17;0.80;;;25.50;1.00;;;;;;5114133;28;20460;-72
2022/09/06 09:30:16;;;;;;;2.77;1.00;;;25.50;99.90;;;;;;5115392;28;20872;-70
2022/09/06 09:32:45;;;;;;;1.60;0.80;;;25.50;99.90;;;;;;5113166;28;20488;-71
2022/09/06 09:35:23;;;;;;;3.43;0.80;;;25.50;99.90;;;;;;5117374;28;20880;-71
2022/09/06 09:37:59;;;;;;;1.20;0.70;;;25.50;99.90;;;;;;5115525;28;20552;-70
2022/09/06 09:40:33;;;;;;;1.27;0.90;;;25.60;99.90;;;;;;5102304;28;20471;-71
2022/09/06 09:43:13;;;;;;;1.17;0.80;;;25.70;99.90;;;;;;5093278;28;20550;-72
2022/09/06 09:45:41;;;;;;;1.63;0.73;;;25.80;99.90;;;;;;5097029;28;20500;-72
2022/09/06 09:48:20;;;;;;;2.70;1.00;;;25.90;99.90;;;;;;5103750;28;20547;-71
2022/09/06 09:50:48;;;;;;;2.40;0.70;;;26.00;99.90;;;;;;5114697;28;20892;-72
2022/09/06 09:53:18;;;;;;;1.53;0.87;;;26.20;99.90;;;;;;5111784;28;20889;-72
2022/09/06 09:55:46;;;;;;;2.00;0.80;;;26.20;99.90;;;;;;5114066;28;20531;-72
2022/09/06 09:58:24;;;;;;;1.87;1.00;;;26.40;99.90;;;;;;5112898;28;20457;-72
2022/09/06 10:01:15;;;;;;;2.67;0.83;;;26.50;99.90;;;;;;5116577;28;20432;-71
2022/09/06 10:03:42;;;;;;;3.13;0.90;;;26.80;21.00;;;;;;5113121;28;20567;-72
2022/09/06 10:06:14;;;;;;;1.10;0.70;;;27.00;1.00;;;;;;5113590;28;20512;-73
2022/09/06 10:08:43;;;;;;;4.63;0.70;;;27.30;1.00;;;;;;5113699;28;20484;-70
2022/09/06 10:11:14;;;;;;;2.63;0.80;;;27.70;1.00;;;;;;5115731;28;20445;-70
2022/09/06 10:13:42;;;;;;;1.37;0.70;;;27.90;1.00;;;;;;5099834;28;20498;-71
2022/09/06 10:16:09;;;;;;;1.00;0.63;;;28.20;1.00;;;;;;5099312;28;20537;-70
2022/09/06 10:18:38;;;;;;;1.37;0.80;;;28.30;1.00;;;;;;5107882;28;20551;-71
2022/09/06 10:21:07;;;;;;;1.47;0.80;;;28.40;1.00;;;;;;5117103;28;20526;-70
2022/09/06 10:23:53;;;;;;;1.10;0.90;;;28.50;1.00;;;;;;5113661;28;20457;-71
2022/09/06 10:26:30;;;;;;;1.23;0.60;;;28.70;1.00;;;;;;5102767;28;20920;-70
2022/09/06 10:29:05;;;;;;;0.90;0.70;;;28.90;1.00;;;;;;5095944;28;20480;-70
2022/09/06 10:31:46;;;;;;;2.30;0.73;;;29.10;1.00;;;;;;5093548;28;20449;-70
2022/09/06 10:34:31;;;;;;;1.83;0.80;;;29.50;1.00;;;;;;5112765;28;20445;-71
2022/09/06 10:37:12;;;;;;;2.60;0.60;;;29.50;1.00;;;;;;5108638;28;20526;-73
2022/09/06 10:39:49;;;;;;;1.40;0.80;;;29.30;1.00;;;;;;5094161;28;20750;-71
2022/09/06 10:42:27;;;;;;;0.97;0.70;;;29.00;1.00;;;;;;5092655;28;20455;-71
2022/09/06 10:45:16;;;;;;;1.83;0.70;;;29.10;1.00;;;;;;5095713;28;20936;-71
2022/09/06 10:47:55;;;;;;;2.87;0.83;;;28.90;1.00;;;;;;5103237;28;20509;-72
2022/09/06 10:50:35;;;;;;;0.97;0.70;;;28.90;1.00;;;;;;5094553;28;20656;-70
2022/09/06 10:53:09;;;;;;;6.13;0.90;;;28.70;1.00;;;;;;5091881;28;20461;-71
2022/09/06 10:55:39;;;;;;;2.33;1.07;;;28.80;1.00;;;;;;5094586;28;20513;-71
2022/09/06 10:58:09;;;;;;;1.40;0.70;;;28.80;1.00;;;;;;5094814;28;20556;-72
2022/09/06 11:00:42;;;;;;;1.50;0.80;;;28.80;1.00;;;;;;5099263;28;20452;-71
2022/09/06 11:03:16;;;;;;;2.03;0.80;;;28.70;1.00;;;;;;5098878;28;20952;-72
2022/09/06 11:05:51;;;;;;;1.40;1.30;;;28.60;1.00;;;;;;5100981;27;20857;-71
2022/09/06 11:08:24;;;;;;;1.00;0.80;;;28.50;1.00;;;;;;5098313;28;20480;-72
2022/09/06 11:10:54;;;;;;;3.70;0.80;;;28.60;1.00;;;;;;5101425;28;20970;-70
2022/09/06 11:13:25;;;;;;;2.37;0.63;;;28.50;1.00;;;;;;5102865;28;20559;-70
2022/09/06 11:16:00;;;;;;;2.57;0.80;;;28.60;1.00;;;;;;5098010;28;20909;-71
2022/09/06 11:18:32;;;;;;;2.13;0.80;;;28.60;1.00;;;;;;5093111;28;20544;-71
2022/09/06 11:21:25;;;;;;;1.83;0.70;;;28.40;1.00;;;;;;5091708;28;20884;-71
2022/09/06 11:23:53;;;;;;;0.87;0.60;;;28.60;1.00;;;;;;5095654;28;20453;-71
2022/09/06 11:26:45;;;;;;;;;;;;;;;;;;;;;
2022/09/06 11:29:22;;;;;;;1.53;0.70;;;29.00;1.00;;;;;;5098625;28;20446;-71
2022/09/06 11:31:53;;;;;;;1.30;0.70;;;29.40;1.00;;;;;;5102910;27;20464;-72
2022/09/06 11:34:23;;;;;;;0.87;0.70;;;29.50;1.00;;;;;;5097532;28;20445;-72
2022/09/06 11:36:52;;;;;;;1.83;0.90;;;29.70;1.00;;;;;;5114884;28;20841;-72
2022/09/06 11:39:31;;;;;;;1.00;0.80;;;29.70;1.00;;;;;;5115725;28;20789;-72
2022/09/06 11:42:00;;;;;;;1.77;0.80;;;30.10;1.00;;;;;;5111470;28;20550;-72
2022/09/06 11:44:53;;;;;;;1.03;0.70;;;30.40;1.00;;;;;;5114734;28;20541;-71
2022/09/06 11:47:38;;;;;;;1.00;0.80;;;30.60;1.00;;;;;;5112140;28;20460;-72
2022/09/06 11:50:26;;;;;;;1.43;0.80;;;30.70;1.00;;;;;;5114319;28;20464;-72
2022/09/06 11:53:11;;;;;;;4.80;0.90;;;30.80;1.00;;;;;;5112424;28;20907;-71
2022/09/06 11:55:40;;;;;;;1.93;0.77;;;31.10;1.00;;;;;;5113325;28;20445;-70
2022/09/06 11:58:20;;;;;;;2.00;0.97;;;31.20;1.00;;;;;;5112506;28;20811;-70
2022/09/06 12:01:25;;;;;;;1.43;0.70;;;31.00;1.00;;;;;;5113833;28;20707;-71
2022/09/06 12:04:03;;;;;;;2.17;0.80;;;30.70;1.00;;;;;;5113381;28;20457;-71
2022/09/06 12:06:32;;;;;;;2.27;0.93;;;31.00;1.00;;;;;;5114661;28;20776;-72
2022/09/06 12:08:59;;;;;;;4.93;0.80;;;30.80;1.00;;;;;;5114699;28;20477;-71
2022/09/06 12:11:33;;;;;;;2.07;0.90;;;30.80;1.00;;;;;;5113616;28;20483;-72
2022/09/06 12:14:04;;;;;;;1.83;0.80;;;31.10;1.00;;;;;;5113034;28;20467;-71
2022/09/06 12:17:21;;;;;;;0.97;0.73;;;31.20;1.00;;;;;;5131835;27;20610;-71
2022/09/06 12:19:52;;;;;;;1.63;0.80;;;31.10;1.00;;;;;;5130614;27;20504;-70
2022/09/06 12:23:02;;;;;;;1.00;0.80;;;30.90;1.00;;;;;;5130844;27;20518;-70
2022/09/06 12:25:58;;;;;;;1.23;0.70;;;30.40;1.00;;;;;;5129805;27;20451;-71
2022/09/06 12:28:40;;;;;;;2.10;0.90;;;30.10;1.00;;;;;;5129100;27;20812;-71
2022/09/06 12:31:33;;;;;;;1.10;0.73;;;30.20;1.00;;;;;;5128580;27;20450;-71
2022/09/06 12:34:07;;;;;;;1.83;0.90;;;30.60;1.00;;;;;;5130295;27;20951;-72
2022/09/06 12:36:36;;;;;;;1.03;0.80;;;31.10;1.00;;;;;;5126556;27;20554;-72
2022/09/06 12:39:08;;;;;;;1.53;0.90;;;31.20;1.00;;;;;;5128036;27;20440;-72
2022/09/06 12:41:39;;;;;;;2.47;0.80;;;31.00;1.00;;;;;;5127544;27;20571;-70
2022/09/06 12:44:07;;;;;;;1.30;0.80;;;30.30;1.00;;;;;;5128472;27;20445;-70
2022/09/06 12:46:45;;;;;;;1.53;1.00;;;29.90;1.00;;;;;;5128797;27;20451;-70
2022/09/06 12:49:13;;;;;;;1.63;0.80;;;29.30;1.00;;;;;;5130860;27;20450;-72
2022/09/06 12:51:42;;;;;;;1.30;0.80;;;28.70;1.00;;;;;;5130690;27;20444;-71
2022/09/06 12:54:19;;;;;;;3.70;0.80;;;28.40;1.00;;;;;;5130161;27;20760;-72
2022/09/06 12:56:46;;;;;;;3.10;0.90;;;28.20;1.00;;;;;;5129461;27;20535;-71
2022/09/06 12:59:15;;;;;;;1.50;0.90;;;27.90;76.90;;;;;;5130469;27;20813;-71
2022/09/06 13:01:47;;;;;;;1.50;0.90;;;27.70;12.30;;;;;;5130138;27;20913;-71
2022/09/06 13:04:21;;;;;;;2.30;1.10;;;27.50;99.90;;;;;;5127069;27;20483;-73
2022/09/06 13:06:50;;;;;;;1.27;0.93;;;27.30;1.00;;;;;;5129700;27;20921;-71
2022/09/06 13:09:20;;;;;;;1.00;0.70;;;26.90;1.00;;;;;;5125897;27;20490;-70
2022/09/06 13:11:50;;;;;;;1.07;0.83;;;26.40;1.00;;;;;;5130074;27;20451;-70
2022/09/06 13:14:24;;;;;;;2.50;0.90;;;26.30;1.00;;;;;;5128912;27;20455;-70